Speculator, NY (12164)

10:04 AM EST on February 28, 2015 (GMT -0500)
Village Motorsports - Speculator | Change Station
CLOSE
Current Station
Personal Weather Station
Location: Speculator, NY
Elevation: 1768 ft
Nearby Weather Stations

Elev 1768 ft 43.50 °N, 74.37 °W | Updated 8 minutes ago

Partly Cloudy
Partly Cloudy
17.0 °F
Feels Like 11 °F
N
3.7
Wind Variable Wind from NE

Today
High -- | Low -- °F
--% Chance of Precip.
Yesterday
High -- | Low -- °F
Precip. -- in
6:35 AM 5:44 PM
Waxing Gibbous, 78% visible
Pressure 30.83 in
Visibility 10.0 miles
Clouds Clear
Windchill 11 °F
Dew Point 1 °F
Humidity 48%
Rainfall 0.00 in
Snow Depth Not available.
UV 3 out of 12
Pollen .40 out of 12
Air Quality Not available.
Flu Activity Not available.
METAR KGFL 281453Z AUTO 13003KT 10SM CLR M13/M18 A3078 RMK AO2 SLP438 T11281178 51014

More Conditions Fewer Conditions

Pressure 30.83 in
Visibility 10.0 miles
Clouds Clear
Windchill 11 °F
Dew Point 1 °F
Humidity 48%
Rainfall 0.00 in
Snow Depth Not available.
UV 3 out of 12
Pollen .40 out of 12
Air Quality Not available.
Flu Activity Not available.
METAR KGFL 281453Z AUTO 13003KT 10SM CLR M13/M18 A3078 RMK AO2 SLP438 T11281178 51014

More Conditions Fewer Conditions

10-Day Weather Forecast

Almanac

Astronomy

Feb. 28, 2015 Rise Set
Actual Time
Civil Twilight
Nautical Twilight
Astronomical Twilight
Moon
Length of Visible Light
Length of Day
Tomorrow will be .
, % of the Moon is Illuminated

Today's Extremes

State Highs State Lows

Community

WunderPhotos

Upload Photos

1,801,030 photos uploaded!

WunderBlogs® & News

Nearby

Air Quality

  Air Quality AQ Index Pollutant
Not available.

Snow Depth

Station Depth Elevation

Earthquake Activity

City Distance Mag. Time & Date
Minimum magnitude displayed is 2.5.

Coastal Water Temperatures

Place Temperature

Nearby Weather Stations